sensor_id;sensor_type;location;lat;lon;timestamp;pressure;altitude;pressure_sealevel;temperature;humidity
15263;BME280;7733;51.554;13.590;2023-04-28T00:01:29;100838.66;;;7.78;66.17
15263;BME280;7733;51.554;13.590;2023-04-28T00:03:55;100839.66;;;8.03;65.08
15263;BME280;7733;51.554;13.590;2023-04-28T00:06:22;100835.31;;;8.08;64.96
15263;BME280;7733;51.554;13.590;2023-04-28T00:08:47;100828.34;;;8.11;64.41
15263;BME280;7733;51.554;13.590;2023-04-28T00:11:13;100838.81;;;8.16;63.82
15263;BME280;7733;51.554;13.590;2023-04-28T00:13:39;100832.72;;;8.20;64.67
15263;BME280;7733;51.554;13.590;2023-04-28T00:16:05;100840.56;;;8.15;64.16
15263;BME280;7733;51.554;13.590;2023-04-28T00:18:31;100826.66;;;8.22;64.07
15263;BME280;7733;51.554;13.590;2023-04-28T00:20:58;100824.91;;;8.28;63.83
15263;BME280;7733;51.554;13.590;2023-04-28T00:23:23;100825.78;;;8.33;64.30
15263;BME280;7733;51.554;13.590;2023-04-28T00:25:54;100822.25;;;8.08;65.39
15263;BME280;7733;51.554;13.590;2023-04-28T00:28:20;100823.09;;;8.01;67.33
15263;BME280;7733;51.554;13.590;2023-04-28T00:30:46;100810.94;;;8.07;67.45
15263;BME280;7733;51.554;13.590;2023-04-28T00:33:12;100820.50;;;8.10;67.08
15263;BME280;7733;51.554;13.590;2023-04-28T00:35:39;100808.34;;;8.16;67.24
15263;BME280;7733;51.554;13.590;2023-04-28T00:38:06;100806.59;;;8.17;66.51
15263;BME280;7733;51.554;13.590;2023-04-28T00:40:38;100798.72;;;8.02;67.88
15263;BME280;7733;51.554;13.590;2023-04-28T00:43:04;100796.13;;;8.17;66.38
15263;BME280;7733;51.554;13.590;2023-04-28T00:45:31;100796.84;;;7.62;70.56
15263;BME280;7733;51.554;13.590;2023-04-28T00:47:58;100795.06;;;7.55;71.90
15263;BME280;7733;51.554;13.590;2023-04-28T00:50:25;100786.53;;;8.04;67.63
15263;BME280;7733;51.554;13.590;2023-04-28T00:52:51;100791.72;;;7.90;68.43
15263;BME280;7733;51.554;13.590;2023-04-28T00:55:18;100789.13;;;8.01;66.66
15263;BME280;7733;51.554;13.590;2023-04-28T00:57:44;100780.44;;;8.03;66.41
15263;BME280;7733;51.554;13.590;2023-04-28T01:00:11;100781.34;;;8.14;65.89
15263;BME280;7733;51.554;13.590;2023-04-28T01:02:37;100776.09;;;8.11;66.81
15263;BME280;7733;51.554;13.590;2023-04-28T01:05:04;100771.75;;;8.13;65.88
15263;BME280;7733;51.554;13.590;2023-04-28T01:07:30;100769.16;;;8.29;64.90
15263;BME280;7733;51.554;13.590;2023-04-28T01:09:55;100771.78;;;8.24;65.23
15263;BME280;7733;51.554;13.590;2023-04-28T01:12:22;100778.78;;;8.36;64.84
15263;BME280;7733;51.554;13.590;2023-04-28T01:14:50;100769.22;;;8.42;64.05
15263;BME280;7733;51.554;13.590;2023-04-28T01:17:17;100768.13;;;7.64;70.07
15263;BME280;7733;51.554;13.590;2023-04-28T01:19:42;100763.91;;;8.13;67.99
15263;BME280;7733;51.554;13.590;2023-04-28T01:22:08;100772.50;;;7.73;71.30
15263;BME280;7733;51.554;13.590;2023-04-28T01:24:39;100770.69;;;7.58;72.06
15263;BME280;7733;51.554;13.590;2023-04-28T01:27:05;100769.09;;;7.89;70.74
15263;BME280;7733;51.554;13.590;2023-04-28T01:29:31;100769.88;;;7.65;72.87
15263;BME280;7733;51.554;13.590;2023-04-28T01:31:57;100761.25;;;7.89;70.72
15263;BME280;7733;51.554;13.590;2023-04-28T01:34:22;100763.91;;;8.10;68.86
15263;BME280;7733;51.554;13.590;2023-04-28T01:36:48;100758.63;;;7.89;70.39
15263;BME280;7733;51.554;13.590;2023-04-28T01:39:14;100762.13;;;7.86;71.05
15263;BME280;7733;51.554;13.590;2023-04-28T01:41:39;100753.41;;;7.86;70.63
15263;BME280;7733;51.554;13.590;2023-04-28T01:44:05;100739.53;;;8.14;67.84
15263;BME280;7733;51.554;13.590;2023-04-28T01:46:32;100739.56;;;8.27;66.91
15263;BME280;7733;51.554;13.590;2023-04-28T01:48:58;100749.13;;;8.32;65.77
15263;BME280;7733;51.554;13.590;2023-04-28T01:51:24;100743.91;;;8.26;66.13
15263;BME280;7733;51.554;13.590;2023-04-28T01:53:50;100744.78;;;8.30;65.39
15263;BME280;7733;51.554;13.590;2023-04-28T01:56:15;100745.66;;;8.26;66.86
15263;BME280;7733;51.554;13.590;2023-04-28T01:58:41;100737.81;;;8.26;67.12
15263;BME280;7733;51.554;13.590;2023-04-28T02:01:07;100742.16;;;8.31;66.53
15263;BME280;7733;51.554;13.590;2023-04-28T02:03:33;100739.50;;;7.94;69.15
15263;BME280;7733;51.554;13.590;2023-04-28T02:05:58;100742.09;;;7.96;69.04
15263;BME280;7733;51.554;13.590;2023-04-28T02:08:24;100738.66;;;8.09;68.53
15263;BME280;7733;51.554;13.590;2023-04-28T02:10:50;100734.31;;;8.20;67.30
15263;BME280;7733;51.554;13.590;2023-04-28T02:13:16;100741.28;;;8.21;67.11
15263;BME280;7733;51.554;13.590;2023-04-28T02:15:42;100727.34;;;8.29;66.42
15263;BME280;7733;51.554;13.590;2023-04-28T02:18:09;100723.91;;;8.34;64.88
15263;BME280;7733;51.554;13.590;2023-04-28T02:20:35;100717.78;;;8.29;66.03
15263;BME280;7733;51.554;13.590;2023-04-28T02:23:01;100720.41;;;8.21;66.74
15263;BME280;7733;51.554;13.590;2023-04-28T02:25:26;100710.78;;;8.17;66.73
15263;BME280;7733;51.554;13.590;2023-04-28T02:27:53;100709.06;;;8.21;65.97
15263;BME280;7733;51.554;13.590;2023-04-28T02:30:19;100713.41;;;8.02;66.78
15263;BME280;7733;51.554;13.590;2023-04-28T02:32:44;100709.88;;;8.00;66.95
15263;BME280;7733;51.554;13.590;2023-04-28T02:35:10;100715.97;;;7.93;67.75
15263;BME280;7733;51.554;13.590;2023-04-28T02:37:36;100708.19;;;8.05;66.55
15263;BME280;7733;51.554;13.590;2023-04-28T02:40:01;100693.38;;;8.10;65.51
15263;BME280;7733;51.554;13.590;2023-04-28T02:42:27;100702.94;;;8.17;65.02
15263;BME280;7733;51.554;13.590;2023-04-28T02:44:53;100705.56;;;8.02;66.40
15263;BME280;7733;51.554;13.590;2023-04-28T02:47:19;100713.38;;;7.90;67.57
15263;BME280;7733;51.554;13.590;2023-04-28T02:49:44;100706.34;;;7.65;68.99
15263;BME280;7733;51.554;13.590;2023-04-28T02:52:10;100696.81;;;7.88;68.02
15263;BME280;7733;51.554;13.590;2023-04-28T02:54:36;100686.38;;;7.96;67.11
15263;BME280;7733;51.554;13.590;2023-04-28T02:57:02;100691.59;;;7.85;67.94
15263;BME280;7733;51.554;13.590;2023-04-28T02:59:29;100694.22;;;7.89;67.99
15263;BME280;7733;51.554;13.590;2023-04-28T03:01:55;100699.41;;;7.80;68.35
15263;BME280;7733;51.554;13.590;2023-04-28T03:04:21;100698.50;;;7.63;69.64
15263;BME280;7733;51.554;13.590;2023-04-28T03:06:47;100690.63;;;7.51;70.48
15263;BME280;7733;51.554;13.590;2023-04-28T03:09:14;100690.56;;;7.31;71.56
15263;BME280;7733;51.554;13.590;2023-04-28T03:11:40;100702.00;;;7.68;69.14
15263;BME280;7733;51.554;13.590;2023-04-28T03:14:06;100693.25;;;7.58;69.98
15263;BME280;7733;51.554;13.590;2023-04-28T03:16:32;100684.59;;;7.72;69.28
15263;BME280;7733;51.554;13.590;2023-04-28T03:18:58;100672.41;;;7.75;68.76
15263;BME280;7733;51.554;13.590;2023-04-28T03:21:23;100676.81;;;7.82;67.86
15263;BME280;7733;51.554;13.590;2023-04-28T03:23:52;100672.41;;;7.77;68.29
15263;BME280;7733;51.554;13.590;2023-04-28T03:26:18;100669.84;;;7.86;67.91
15263;BME280;7733;51.554;13.590;2023-04-28T03:28:44;100662.00;;;7.86;67.48
15263;BME280;7733;51.554;13.590;2023-04-28T03:31:10;100661.13;;;7.96;66.95
15263;BME280;7733;51.554;13.590;2023-04-28T03:33:36;100647.19;;;7.96;66.64
15263;BME280;7733;51.554;13.590;2023-04-28T03:36:01;100652.41;;;7.80;68.34
15263;BME280;7733;51.554;13.590;2023-04-28T03:38:27;100661.13;;;7.84;68.34
15263;BME280;7733;51.554;13.590;2023-04-28T03:40:53;100655.03;;;7.96;67.64
15263;BME280;7733;51.554;13.590;2023-04-28T03:43:18;100655.88;;;7.75;68.07
15263;BME280;7733;51.554;13.590;2023-04-28T03:45:44;100650.63;;;7.56;69.26
15263;BME280;7733;51.554;13.590;2023-04-28T03:48:10;100659.38;;;7.92;67.72
15263;BME280;7733;51.554;13.590;2023-04-28T03:50:36;100654.16;;;8.00;67.65
15263;BME280;7733;51.554;13.590;2023-04-28T03:53:01;100655.94;;;8.11;66.47
15263;BME280;7733;51.554;13.590;2023-04-28T03:55:27;100648.06;;;8.17;66.06
15263;BME280;7733;51.554;13.590;2023-04-28T03:57:53;100646.38;;;8.21;65.63
15263;BME280;7733;51.554;13.590;2023-04-28T04:00:19;100649.84;;;8.06;66.45
15263;BME280;7733;51.554;13.590;2023-04-28T04:02:45;100641.09;;;8.18;65.82
15263;BME280;7733;51.554;13.590;2023-04-28T04:05:11;100635.03;;;8.28;64.74
15263;BME280;7733;51.554;13.590;2023-04-28T04:07:36;100635.00;;;8.16;65.88
15263;BME280;7733;51.554;13.590;2023-04-28T04:10:02;100626.31;;;8.06;66.24
15263;BME280;7733;51.554;13.590;2023-04-28T04:12:28;100625.44;;;8.09;66.30
15263;BME280;7733;51.554;13.590;2023-04-28T04:14:54;100624.59;;;8.02;66.98
15263;BME280;7733;51.554;13.590;2023-04-28T04:17:20;100614.97;;;8.18;66.13
15263;BME280;7733;51.554;13.590;2023-04-28T04:19:45;100621.09;;;8.06;67.13
15263;BME280;7733;51.554;13.590;2023-04-28T04:22:11;100619.34;;;8.10;67.32
15263;BME280;7733;51.554;13.590;2023-04-28T04:24:37;100613.25;;;8.06;67.28
15263;BME280;7733;51.554;13.590;2023-04-28T04:27:02;100609.78;;;8.22;66.39
15263;BME280;7733;51.554;13.590;2023-04-28T04:29:28;100612.38;;;8.30;66.24
15263;BME280;7733;51.554;13.590;2023-04-28T04:31:54;100619.34;;;8.39;65.88
15263;BME280;7733;51.554;13.590;2023-04-28T04:34:19;100621.94;;;8.20;66.91
15263;BME280;7733;51.554;13.590;2023-04-28T04:36:45;100605.41;;;8.46;65.54
15263;BME280;7733;51.554;13.590;2023-04-28T04:39:11;100613.25;;;8.40;66.09
15263;BME280;7733;51.554;13.590;2023-04-28T04:41:37;100601.94;;;8.47;65.45
15263;BME280;7733;51.554;13.590;2023-04-28T04:44:02;100601.91;;;8.41;66.22
15263;BME280;7733;51.554;13.590;2023-04-28T04:46:29;100595.84;;;8.45;65.96
15263;BME280;7733;51.554;13.590;2023-04-28T04:48:55;100592.34;;;8.43;66.58
15263;BME280;7733;51.554;13.590;2023-04-28T04:51:21;100593.22;;;8.39;67.21
15263;BME280;7733;51.554;13.590;2023-04-28T04:53:47;100583.63;;;8.30;67.38
15263;BME280;7733;51.554;13.590;2023-04-28T04:56:12;100593.22;;;8.48;66.77
15263;BME280;7733;51.554;13.590;2023-04-28T04:58:38;100587.94;;;8.63;66.33
15263;BME280;7733;51.554;13.590;2023-04-28T05:01:04;100594.03;;;8.61;66.27
15263;BME280;7733;51.554;13.590;2023-04-28T05:03:30;100587.88;;;8.75;66.00
15263;BME280;7733;51.554;13.590;2023-04-28T05:05:56;100580.88;;;8.87;65.27
15263;BME280;7733;51.554;13.590;2023-04-28T05:08:21;100582.63;;;8.91;65.14
15263;BME280;7733;51.554;13.590;2023-04-28T05:10:47;100580.81;;;8.99;65.23
15263;BME280;7733;51.554;13.590;2023-04-28T05:13:13;100573.84;;;9.04;64.96
15263;BME280;7733;51.554;13.590;2023-04-28T05:15:39;100569.50;;;8.94;65.19
15263;BME280;7733;51.554;13.590;2023-04-28T05:18:04;100570.31;;;9.11;64.55
15263;BME280;7733;51.554;13.590;2023-04-28T05:20:35;100571.16;;;9.16;64.11
15263;BME280;7733;51.554;13.590;2023-04-28T05:23:01;100563.34;;;9.10;64.42
15263;BME280;7733;51.554;13.590;2023-04-28T05:25:27;100558.94;;;9.17;64.20
15263;BME280;7733;51.554;13.590;2023-04-28T05:27:54;100556.41;;;9.03;64.14
15263;BME280;7733;51.554;13.590;2023-04-28T05:30:20;100557.06;;;9.38;63.23
15263;BME280;7733;51.554;13.590;2023-04-28T05:32:46;100550.19;;;9.18;63.99
15263;BME280;7733;51.554;13.590;2023-04-28T05:35:11;100548.41;;;9.29;63.26
15263;BME280;7733;51.554;13.590;2023-04-28T05:37:38;100545.78;;;9.30;62.85
15263;BME280;7733;51.554;13.590;2023-04-28T05:40:05;100541.25;;;9.52;62.37
15263;BME280;7733;51.554;13.590;2023-04-28T05:42:32;100537.75;;;9.53;62.22
15263;BME280;7733;51.554;13.590;2023-04-28T05:44:58;100540.47;;;9.42;62.50
15263;BME280;7733;51.554;13.590;2023-04-28T05:47:23;100535.13;;;9.55;62.58
15263;BME280;7733;51.554;13.590;2023-04-28T05:49:49;100541.03;;;9.78;61.48
15263;BME280;7733;51.554;13.590;2023-04-28T05:52:15;100541.97;;;9.72;61.31
15263;BME280;7733;51.554;13.590;2023-04-28T05:54:40;100531.63;;;9.56;61.58
15263;BME280;7733;51.554;13.590;2023-04-28T05:57:06;100535.03;;;9.67;61.24
15263;BME280;7733;51.554;13.590;2023-04-28T05:59:32;100528.84;;;9.77;61.16
15263;BME280;7733;51.554;13.590;2023-04-28T06:01:58;100530.47;;;9.90;60.83
15263;BME280;7733;51.554;13.590;2023-04-28T06:04:24;100527.06;;;9.84;60.69
15263;BME280;7733;51.554;13.590;2023-04-28T06:06:50;100531.06;;;10.20;60.08
15263;BME280;7733;51.554;13.590;2023-04-28T06:09:16;100527.94;;;9.81;59.90
15263;BME280;7733;51.554;13.590;2023-04-28T06:11:42;100525.03;;;10.10;59.72
15263;BME280;7733;51.554;13.590;2023-04-28T06:14:07;100518.91;;;10.13;59.87
15263;BME280;7733;51.554;13.590;2023-04-28T06:16:33;100524.97;;;10.22;59.61
15263;BME280;7733;51.554;13.590;2023-04-28T06:18:59;100533.59;;;10.32;60.46
15263;BME280;7733;51.554;13.590;2023-04-28T06:21:25;100532.59;;;10.45;59.29
15263;BME280;7733;51.554;13.590;2023-04-28T06:23:51;100532.38;;;10.63;59.40
15263;BME280;7733;51.554;13.590;2023-04-28T06:26:17;100525.13;;;10.84;58.97
15263;BME280;7733;51.554;13.590;2023-04-28T06:28:43;100534.09;;;10.64;59.13
15263;BME280;7733;51.554;13.590;2023-04-28T06:31:09;100521.66;;;10.82;57.95
15263;BME280;7733;51.554;13.590;2023-04-28T06:33:35;100527.91;;;10.70;58.15
15263;BME280;7733;51.554;13.590;2023-04-28T06:36:00;100525.13;;;10.84;57.47
15263;BME280;7733;51.554;13.590;2023-04-28T06:38:26;100526.84;;;10.85;57.47
15263;BME280;7733;51.554;13.590;2023-04-28T06:40:52;100533.66;;;10.98;57.16
15263;BME280;7733;51.554;13.590;2023-04-28T06:43:19;100529.41;;;10.91;56.94
15263;BME280;7733;51.554;13.590;2023-04-28T06:45:44;100525.66;;;11.09;56.83
15263;BME280;7733;51.554;13.590;2023-04-28T06:48:10;100516.69;;;11.25;56.40
15263;BME280;7733;51.554;13.590;2023-04-28T06:50:36;100523.06;;;11.07;55.95
15263;BME280;7733;51.554;13.590;2023-04-28T06:53:02;100510.50;;;11.27;55.62
15263;BME280;7733;51.554;13.590;2023-04-28T06:55:28;100513.13;;;11.27;55.50
15263;BME280;7733;51.554;13.590;2023-04-28T06:57:53;100513.97;;;11.30;54.99
15263;BME280;7733;51.554;13.590;2023-04-28T07:00:19;100500.66;;;11.42;55.02
15263;BME280;7733;51.554;13.590;2023-04-28T07:02:45;100504.56;;;11.70;54.27
15263;BME280;7733;51.554;13.590;2023-04-28T07:05:11;100503.28;;;11.43;54.50
15263;BME280;7733;51.554;13.590;2023-04-28T07:07:37;100487.38;;;11.51;53.77
15263;BME280;7733;51.554;13.590;2023-04-28T07:10:04;100485.72;;;11.98;53.60
15263;BME280;7733;51.554;13.590;2023-04-28T07:12:30;100484.88;;;11.96;53.47
15263;BME280;7733;51.554;13.590;2023-04-28T07:14:56;100488.00;;;12.16;53.53
15263;BME280;7733;51.554;13.590;2023-04-28T07:17:21;100481.25;;;12.01;52.92
15263;BME280;7733;51.554;13.590;2023-04-28T07:19:47;100472.97;;;12.24;52.86
15263;BME280;7733;51.554;13.590;2023-04-28T07:22:15;100471.53;;;12.51;52.06
15263;BME280;7733;51.554;13.590;2023-04-28T07:24:42;100472.50;;;12.47;52.09
15263;BME280;7733;51.554;13.590;2023-04-28T07:27:08;100468.47;;;12.72;51.22
15263;BME280;7733;51.554;13.590;2023-04-28T07:29:34;100459.22;;;12.53;50.83
15263;BME280;7733;51.554;13.590;2023-04-28T07:32:01;100460.81;;;12.62;51.06
15263;BME280;7733;51.554;13.590;2023-04-28T07:34:27;100458.16;;;13.00;50.63
15263;BME280;7733;51.554;13.590;2023-04-28T07:36:53;100460.28;;;12.86;50.56
15263;BME280;7733;51.554;13.590;2023-04-28T07:39:19;100455.19;;;13.16;50.27
15263;BME280;7733;51.554;13.590;2023-04-28T07:41:45;100455.41;;;13.06;50.19
15263;BME280;7733;51.554;13.590;2023-04-28T07:44:11;100451.31;;;13.32;49.84
15263;BME280;7733;51.554;13.590;2023-04-28T07:46:37;100449.69;;;13.28;49.41
15263;BME280;7733;51.554;13.590;2023-04-28T07:49:02;100452.41;;;13.59;49.79
15263;BME280;7733;51.554;13.590;2023-04-28T07:51:29;100451.94;;;13.43;48.90
15263;BME280;7733;51.554;13.590;2023-04-28T07:53:56;100451.06;;;13.77;48.60
15263;BME280;7733;51.554;13.590;2023-04-28T07:56:22;100444.75;;;13.84;49.19
15263;BME280;7733;51.554;13.590;2023-04-28T07:58:48;100445.22;;;13.98;48.77
15263;BME280;7733;51.554;13.590;2023-04-28T08:01:13;100435.66;;;14.26;48.30
15263;BME280;7733;51.554;13.590;2023-04-28T08:03:39;100436.53;;;14.27;48.08
15263;BME280;7733;51.554;13.590;2023-04-28T08:06:06;100428.47;;;14.31;48.69
15263;BME280;7733;51.554;13.590;2023-04-28T08:08:32;100423.97;;;14.66;47.42
15263;BME280;7733;51.554;13.590;2023-04-28T08:10:58;100420.94;;;14.78;47.32
15263;BME280;7733;51.554;13.590;2023-04-28T08:13:24;100419.16;;;14.79;47.39
15263;BME280;7733;51.554;13.590;2023-04-28T08:15:50;100415.25;;;14.92;47.51
15263;BME280;7733;51.554;13.590;2023-04-28T08:18:16;100410.91;;;14.89;47.36
15263;BME280;7733;51.554;13.590;2023-04-28T08:20:41;100412.38;;;15.26;46.72
15263;BME280;7733;51.554;13.590;2023-04-28T08:23:08;100411.25;;;15.33;46.44
15263;BME280;7733;51.554;13.590;2023-04-28T08:25:34;100411.78;;;15.44;46.55
15263;BME280;7733;51.554;13.590;2023-04-28T08:28:00;100406.59;;;15.68;45.47
15263;BME280;7733;51.554;13.590;2023-04-28T08:30:28;100405.00;;;15.64;45.18
15263;BME280;7733;51.554;13.590;2023-04-28T08:32:54;100400.28;;;15.97;44.83
15263;BME280;7733;51.554;13.590;2023-04-28T08:35:20;100409.00;;;16.24;45.73
15263;BME280;7733;51.554;13.590;2023-04-28T08:37:45;100397.69;;;16.19;44.83
15263;BME280;7733;51.554;13.590;2023-04-28T08:40:14;100395.59;;;16.28;44.95
15263;BME280;7733;51.554;13.590;2023-04-28T08:42:40;100396.00;;;16.64;44.50
15263;BME280;7733;51.554;13.590;2023-04-28T08:45:14;100392.59;;;16.37;44.20
15263;BME280;7733;51.554;13.590;2023-04-28T08:47:41;100393.25;;;16.44;43.79
15263;BME280;7733;51.554;13.590;2023-04-28T08:50:12;100394.44;;;16.82;44.06
15263;BME280;7733;51.554;13.590;2023-04-28T08:52:40;100384.44;;;16.89;43.92
15263;BME280;7733;51.554;13.590;2023-04-28T08:55:09;100378.63;;;17.01;43.60
15263;BME280;7733;51.554;13.590;2023-04-28T08:57:48;100380.34;;;17.03;43.30
15263;BME280;7733;51.554;13.590;2023-04-28T09:00:14;100371.66;;;17.20;42.69
15263;BME280;7733;51.554;13.590;2023-04-28T09:02:40;100366.50;;;17.38;42.77
15263;BME280;7733;51.554;13.590;2023-04-28T09:05:08;100367.66;;;17.32;42.75
15263;BME280;7733;51.554;13.590;2023-04-28T09:07:34;100370.69;;;17.85;41.79
15263;BME280;7733;51.554;13.590;2023-04-28T09:10:22;100370.38;;;18.12;41.85
15263;BME280;7733;51.554;13.590;2023-04-28T09:12:52;100371.88;;;17.78;42.08
15263;BME280;7733;51.554;13.590;2023-04-28T09:15:32;100360.63;;;18.31;41.00
15263;BME280;7733;51.554;13.590;2023-04-28T09:18:00;100360.97;;;18.63;41.12
15263;BME280;7733;51.554;13.590;2023-04-28T09:20:29;100362.19;;;18.54;40.79
15263;BME280;7733;51.554;13.590;2023-04-28T09:23:11;100348.63;;;18.60;41.61
15263;BME280;7733;51.554;13.590;2023-04-28T09:25:37;100351.88;;;18.86;40.83
15263;BME280;7733;51.554;13.590;2023-04-28T09:28:20;100358.06;;;18.48;41.71
15263;BME280;7733;51.554;13.590;2023-04-28T09:30:46;100352.31;;;18.76;41.24
15263;BME280;7733;51.554;13.590;2023-04-28T09:33:12;100351.00;;;18.47;40.46
15263;BME280;7733;51.554;13.590;2023-04-28T09:35:42;100356.31;;;18.10;41.60
15263;BME280;7733;51.554;13.590;2023-04-28T09:38:11;100340.97;;;18.73;41.44
15263;BME280;7733;51.554;13.590;2023-04-28T09:41:00;100340.81;;;18.38;41.40
15263;BME280;7733;51.554;13.590;2023-04-28T09:43:33;100339.22;;;18.53;41.53
15263;BME280;7733;51.554;13.590;2023-04-28T09:46:02;100342.03;;;18.31;41.67
15263;BME280;7733;51.554;13.590;2023-04-28T09:48:33;100329.06;;;18.25;40.98
15263;BME280;7733;51.554;13.590;2023-04-28T09:51:05;100335.50;;;18.57;41.88
15263;BME280;7733;51.554;13.590;2023-04-28T09:53:32;100334.88;;;18.71;40.56
15263;BME280;7733;51.554;13.590;2023-04-28T09:56:01;100335.94;;;18.86;41.19
15263;BME280;7733;51.554;13.590;2023-04-28T09:58:29;100322.94;;;18.97;40.54
15263;BME280;7733;51.554;13.590;2023-04-28T10:00:58;100325.16;;;18.32;42.31
15263;BME280;7733;51.554;13.590;2023-04-28T10:03:29;100326.44;;;18.80;40.73
15263;BME280;7733;51.554;13.590;2023-04-28T10:05:57;100312.53;;;18.37;42.37
15263;BME280;7733;51.554;13.590;2023-04-28T10:08:25;100318.28;;;18.09;42.58
15263;BME280;7733;51.554;13.590;2023-04-28T10:10:54;100315.09;;;18.76;41.63
15263;BME280;7733;51.554;13.590;2023-04-28T10:13:22;100316.81;;;18.21;43.25
15263;BME280;7733;51.554;13.590;2023-04-28T10:15:49;100322.31;;;18.92;41.42
15263;BME280;7733;51.554;13.590;2023-04-28T10:18:16;100317.06;;;18.73;41.60
15263;BME280;7733;51.554;13.590;2023-04-28T10:20:48;100310.50;;;18.80;41.40
15263;BME280;7733;51.554;13.590;2023-04-28T10:27:06;100306.81;;;18.65;42.03
15263;BME280;7733;51.554;13.590;2023-04-28T10:29:33;100309.28;;;19.04;41.42
15263;BME280;7733;51.554;13.590;2023-04-28T10:32:22;100308.97;;;19.10;40.93
15263;BME280;7733;51.554;13.590;2023-04-28T10:38:17;100295.84;;;19.25;41.09
15263;BME280;7733;51.554;13.590;2023-04-28T10:40:49;100306.50;;;19.25;41.42
15263;BME280;7733;51.554;13.590;2023-04-28T10:56:17;100282.13;;;18.62;41.43
15263;BME280;7733;51.554;13.590;2023-04-28T10:58:48;100286.09;;;18.53;41.98
15263;BME280;7733;51.554;13.590;2023-04-28T11:06:23;100286.56;;;18.25;43.89
15263;BME280;7733;51.554;13.590;2023-04-28T11:14:35;100292.28;;;18.53;43.25
15263;BME280;7733;51.554;13.590;2023-04-28T11:17:07;100288.84;;;18.33;43.49
15263;BME280;7733;51.554;13.590;2023-04-28T11:19:38;100277.28;;;18.52;43.33
15263;BME280;7733;51.554;13.590;2023-04-28T11:22:13;100282.66;;;18.70;43.79
15263;BME280;7733;51.554;13.590;2023-04-28T11:24:39;100283.91;;;18.63;43.39
15263;BME280;7733;51.554;13.590;2023-04-28T11:27:05;100287.50;;;18.24;44.89
15263;BME280;7733;51.554;13.590;2023-04-28T11:29:34;100281.94;;;18.66;43.94
15263;BME280;7733;51.554;13.590;2023-04-28T11:32:04;100276.22;;;18.19;44.68
15263;BME280;7733;51.554;13.590;2023-04-28T11:34:31;100285.69;;;17.87;46.51
15263;BME280;7733;51.554;13.590;2023-04-28T11:36:57;100280.09;;;17.93;46.10
15263;BME280;7733;51.554;13.590;2023-04-28T11:39:31;100278.59;;;18.25;47.08
15263;BME280;7733;51.554;13.590;2023-04-28T11:42:08;100276.25;;;18.55;46.14
15263;BME280;7733;51.554;13.590;2023-04-28T11:44:34;100271.13;;;18.88;45.40
15263;BME280;7733;51.554;13.590;2023-04-28T11:47:02;100281.09;;;18.66;45.87
15263;BME280;7733;51.554;13.590;2023-04-28T11:49:43;100270.97;;;18.36;46.17
15263;BME280;7733;51.554;13.590;2023-04-28T11:52:10;100269.69;;;18.81;45.89
15263;BME280;7733;51.554;13.590;2023-04-28T11:54:37;100268.50;;;18.50;46.92
15263;BME280;7733;51.554;13.590;2023-04-28T11:57:04;100268.19;;;18.02;48.87
15263;BME280;7733;51.554;13.590;2023-04-28T11:59:34;100271.50;;;18.07;49.87
15263;BME280;7733;51.554;13.590;2023-04-28T12:02:03;100283.09;;;17.85;50.17
15263;BME280;7733;51.554;13.590;2023-04-28T12:04:34;100274.56;;;17.98;50.86
15263;BME280;7733;51.554;13.590;2023-04-28T12:07:14;100277.13;;;17.60;51.83
15263;BME280;7733;51.554;13.590;2023-04-28T12:09:43;100281.94;;;17.72;51.23
15263;BME280;7733;51.554;13.590;2023-04-28T12:12:12;100279.56;;;17.46;51.75
15263;BME280;7733;51.554;13.590;2023-04-28T12:17:30;100284.72;;;17.08;53.15
15263;BME280;7733;51.554;13.590;2023-04-28T12:19:58;100282.13;;;17.07;53.37
15263;BME280;7733;51.554;13.590;2023-04-28T12:22:24;100278.06;;;16.98;53.69
15263;BME280;7733;51.554;13.590;2023-04-28T12:25:10;100276.03;;;17.45;53.26
15263;BME280;7733;51.554;13.590;2023-04-28T12:27:39;100278.63;;;17.26;54.56
15263;BME280;7733;51.554;13.590;2023-04-28T12:32:46;100282.28;;;17.24;53.42
15263;BME280;7733;51.554;13.590;2023-04-28T12:35:11;100275.28;;;17.21;53.49
15263;BME280;7733;51.554;13.590;2023-04-28T12:37:37;100266.22;;;17.47;53.15
15263;BME280;7733;51.554;13.590;2023-04-28T12:40:05;100271.94;;;16.76;55.53
15263;BME280;7733;51.554;13.590;2023-04-28T12:42:31;100262.94;;;17.42;53.94
15263;BME280;7733;51.554;13.590;2023-04-28T12:44:57;100263.94;;;17.58;53.92
15263;BME280;7733;51.554;13.590;2023-04-28T12:47:23;100266.31;;;17.46;55.15
15263;BME280;7733;51.554;13.590;2023-04-28T12:49:49;100263.09;;;17.17;56.11
15263;BME280;7733;51.554;13.590;2023-04-28T12:52:18;100260.38;;;17.39;55.88
15263;BME280;7733;51.554;13.590;2023-04-28T12:54:44;100264.25;;;17.12;57.54
15263;BME280;7733;51.554;13.590;2023-04-28T12:57:18;100262.78;;;17.05;57.55
15263;BME280;7733;51.554;13.590;2023-04-28T12:59:47;100263.25;;;17.34;56.46
15263;BME280;7733;51.554;13.590;2023-04-28T13:02:13;100263.06;;;16.77;58.57
15263;BME280;7733;51.554;13.590;2023-04-28T13:04:40;100263.72;;;16.82;58.76
15263;BME280;7733;51.554;13.590;2023-04-28T13:07:14;100256.56;;;17.26;58.11
15263;BME280;7733;51.554;13.590;2023-04-28T13:09:41;100256.69;;;16.59;60.00
15263;BME280;7733;51.554;13.590;2023-04-28T13:12:10;100255.28;;;16.94;60.58
15263;BME280;7733;51.554;13.590;2023-04-28T13:14:39;100250.66;;;17.19;60.25
15263;BME280;7733;51.554;13.590;2023-04-28T13:17:04;100245.75;;;17.10;60.32
15263;BME280;7733;51.554;13.590;2023-04-28T13:19:30;100246.75;;;17.67;58.14
15263;BME280;7733;51.554;13.590;2023-04-28T13:21:58;100250.81;;;17.55;57.42
15263;BME280;7733;51.554;13.590;2023-04-28T13:24:24;100239.88;;;17.83;57.70
15263;BME280;7733;51.554;13.590;2023-04-28T13:26:51;100243.88;;;17.92;56.60
15263;BME280;7733;51.554;13.590;2023-04-28T13:29:17;100240.78;;;18.01;56.39
15263;BME280;7733;51.554;13.590;2023-04-28T13:31:43;100242.50;;;17.83;57.58